createdAt,value
2019-02-19T00:28:26.284Z,1010.70
2019-02-19T00:28:26.858Z,1010.73
2019-02-19T00:28:27.455Z,1010.71
2019-02-19T00:28:28.054Z,1010.71
2019-02-19T00:28:28.655Z,1010.69
2019-02-19T00:28:29.255Z,1010.66
2019-02-19T00:28:29.857Z,1010.70
2019-02-19T00:29:23.332Z,1010.71
2019-02-19T00:29:23.893Z,1010.74
2019-02-19T00:29:24.497Z,1010.73
2019-02-19T00:29:25.092Z,1010.73
2019-02-19T00:29:25.706Z,1010.74
2019-02-19T00:29:26.292Z,1010.76
2019-02-19T00:29:26.893Z,1010.75
2019-02-19T00:29:27.491Z,1010.72
2019-02-19T00:30:20.975Z,1010.72
2019-02-19T00:30:21.548Z,1010.70
2019-02-19T00:30:22.145Z,1010.71
2019-02-19T00:30:22.745Z,1010.72
2019-02-19T00:30:23.345Z,1010.70
2019-02-19T00:30:23.946Z,1010.70
2019-02-19T00:30:24.547Z,1010.76
2019-02-19T00:30:25.144Z,1010.68
2019-02-19T00:31:18.628Z,1010.67
2019-02-19T00:31:19.204Z,1010.66
2019-02-19T00:31:19.799Z,1010.66
2019-02-19T00:31:20.397Z,1010.67
2019-02-19T00:31:21.000Z,1010.66
2019-02-19T00:31:21.599Z,1010.70
2019-02-19T00:31:22.197Z,1010.67
2019-02-19T00:31:22.798Z,1010.67
2019-02-19T00:32:19.349Z,1010.67
2019-02-19T00:32:19.922Z,1010.70
2019-02-19T00:32:20.523Z,1010.67
2019-02-19T00:33:15.056Z,1010.65
2019-02-19T00:33:15.634Z,1010.70
2019-02-19T00:33:16.228Z,1010.68
2019-02-19T00:33:16.827Z,1010.66
2019-02-19T00:33:17.429Z,1010.65
2019-02-19T00:33:18.030Z,1010.67
2019-02-19T00:33:18.633Z,1010.68
2019-02-19T00:33:19.229Z,1010.67
2019-02-19T00:34:14.244Z,1010.67
2019-02-19T00:34:14.816Z,1010.65
2019-02-19T00:34:15.417Z,1010.70
2019-02-19T00:34:16.016Z,1010.68
2019-02-19T00:34:16.618Z,1010.66
2019-02-19T00:34:17.215Z,1010.67
2019-02-19T00:35:12.203Z,1010.67
2019-02-19T00:35:12.776Z,1010.65
2019-02-19T00:35:13.380Z,1010.68
2019-02-19T00:35:13.975Z,1010.68
2019-02-19T00:35:14.575Z,1010.66
2019-02-19T00:35:15.175Z,1010.66
2019-02-19T00:35:15.775Z,1010.64
2019-02-19T00:35:16.376Z,1010.67
2019-02-19T00:36:10.879Z,1010.62
2019-02-19T00:36:11.452Z,1010.62
2019-02-19T00:36:12.052Z,1010.63
2019-02-19T00:36:12.651Z,1010.65
2019-02-19T00:36:13.256Z,1010.62
2019-02-19T00:36:13.852Z,1010.62
2019-02-19T00:36:14.454Z,1010.65
2019-02-19T00:36:15.050Z,1010.61
2019-02-19T00:37:13.549Z,1010.57
2019-02-19T00:37:14.122Z,1010.61
2019-02-19T00:37:14.724Z,1010.57
2019-02-19T00:37:15.320Z,1010.58
2019-02-19T00:37:15.921Z,1010.61
2019-02-19T00:37:16.521Z,1010.63
2019-02-19T00:37:17.156Z,1010.61
2019-02-19T00:37:17.720Z,1010.61
2019-02-19T00:37:18.319Z,1010.63
2019-02-19T00:37:18.920Z,1010.60
2019-02-19T00:37:19.520Z,1010.59
2019-02-19T00:37:20.119Z,1010.61
2019-02-19T00:37:20.722Z,1010.63
2019-02-19T00:37:21.318Z,1010.61
2019-02-19T00:37:21.924Z,1010.66
2019-02-19T00:37:22.516Z,1010.65
2019-02-19T04:41:58.723Z,1010.88
2019-02-19T04:41:59.294Z,1010.85
2019-02-19T04:41:59.895Z,1010.82
2019-02-19T04:42:00.492Z,1010.83
2019-02-19T04:42:01.097Z,1010.82
2019-02-19T04:42:01.694Z,1010.81
2019-02-19T04:42:02.291Z,1010.84
2019-02-19T04:42:02.901Z,1010.80
2019-02-19T04:42:03.491Z,1010.84
2019-02-19T04:42:04.091Z,1010.86
2019-02-19T04:42:04.692Z,1010.84
2019-02-19T04:42:05.291Z,1010.84
2019-02-19T04:44:43.995Z,1010.91
2019-02-19T04:44:44.498Z,1010.89
2019-02-19T04:44:45.098Z,1010.91
2019-02-19T04:44:45.696Z,1010.91
2019-02-19T04:44:46.304Z,1010.90
2019-02-19T04:45:47.323Z,1010.83
2019-02-19T04:45:47.895Z,1010.86
2019-02-19T04:45:48.495Z,1010.89
2019-02-19T04:45:49.099Z,1010.85
2019-02-19T04:45:49.692Z,1010.89
2019-02-19T04:45:50.296Z,1010.86
2019-02-19T04:45:50.894Z,1010.84
2019-02-19T04:45:51.496Z,1010.86
2019-02-19T04:45:52.092Z,1010.85
2019-02-19T04:45:52.693Z,1010.85
2019-02-19T04:45:53.292Z,1010.87
2019-02-19T04:45:53.891Z,1010.85
2019-02-19T04:46:47.432Z,1010.79
2019-02-19T04:46:48.003Z,1010.74
2019-02-19T04:46:48.607Z,1010.77
2019-02-19T04:46:49.204Z,1010.77
2019-02-19T04:46:49.802Z,1010.79
2019-02-19T04:46:50.404Z,1010.78
2019-02-19T04:46:51.002Z,1010.77
2019-02-19T04:46:51.607Z,1010.78
2019-02-19T04:47:45.599Z,1010.70
2019-02-19T04:47:46.168Z,1010.69
2019-02-19T04:47:46.768Z,1010.69
2019-02-19T04:47:47.366Z,1010.65
2019-02-19T04:47:47.966Z,1010.67
2019-02-19T04:47:48.565Z,1010.67
2019-02-19T04:47:49.166Z,1010.72
2019-02-19T04:49:02.702Z,1010.69
2019-02-19T04:49:03.274Z,1010.71
2019-02-19T04:49:03.875Z,1010.71
2019-02-19T04:49:04.490Z,1010.74
2019-02-19T04:49:05.075Z,1010.71
2019-02-19T04:49:05.673Z,1010.69
2019-02-19T04:49:06.273Z,1010.69
2019-02-19T04:49:06.877Z,1010.70
2019-02-19T04:50:00.361Z,1010.77
2019-02-19T04:50:00.966Z,1010.74
2019-02-19T04:50:01.529Z,1010.74
2019-02-19T04:50:02.127Z,1010.73
2019-02-19T04:50:02.725Z,1010.77
2019-02-19T04:50:03.326Z,1010.75
2019-02-19T04:50:03.929Z,1010.77
2019-02-19T04:50:04.528Z,1010.70
2019-02-19T04:50:58.006Z,1010.73
2019-02-19T04:50:58.578Z,1010.71
2019-02-19T04:50:59.180Z,1010.72
2019-02-19T04:50:59.786Z,1010.75
2019-02-19T04:51:00.377Z,1010.71
2019-02-19T04:51:00.978Z,1010.71
2019-02-19T04:51:01.578Z,1010.72
2019-02-19T04:51:02.185Z,1010.72
2019-02-19T04:52:20.236Z,1010.70
2019-02-19T04:52:20.807Z,1010.70
2019-02-19T04:52:21.409Z,1010.72
2019-02-19T04:52:22.005Z,1010.71
2019-02-19T04:52:22.606Z,1010.73
2019-02-19T04:52:23.206Z,1010.71
2019-02-19T04:52:23.806Z,1010.71
2019-02-19T04:52:24.405Z,1010.72
2019-02-19T04:52:25.008Z,1010.73
2019-02-19T04:52:25.606Z,1010.73
2019-02-19T04:52:26.203Z,1010.75
2019-02-19T04:52:26.802Z,1010.71
2019-02-19T04:52:27.404Z,1010.70
2019-02-19T04:52:28.004Z,1010.73
2019-02-19T04:52:28.603Z,1010.71
2019-02-19T04:52:29.203Z,1010.74
2019-02-19T04:52:29.809Z,1010.69
2019-02-19T04:53:23.313Z,1010.70
2019-02-19T04:53:23.892Z,1010.70
2019-02-19T04:53:24.485Z,1010.69
2019-02-19T04:53:25.087Z,1010.69
2019-02-19T04:53:25.685Z,1010.72
2019-02-19T04:53:26.296Z,1010.72
2019-02-19T04:53:26.884Z,1010.71
2019-02-19T04:53:27.485Z,1010.69
2019-02-19T04:54:21.477Z,1010.73
2019-02-19T04:54:22.049Z,1010.74
2019-02-19T04:54:22.651Z,1010.72
2019-02-19T04:54:23.256Z,1010.74
2019-02-19T04:54:23.848Z,1010.73
2019-02-19T04:54:24.448Z,1010.74
2019-02-19T04:54:25.053Z,1010.70
2019-02-19T04:55:19.027Z,1010.70
2019-02-19T04:55:19.601Z,1010.70
2019-02-19T04:55:20.202Z,1010.68
2019-02-19T04:55:20.805Z,1010.72
2019-02-19T04:55:21.436Z,1010.69
2019-02-19T04:55:22.000Z,1010.73
2019-02-19T04:55:22.600Z,1010.70
2019-02-19T04:56:17.598Z,1010.73
2019-02-19T04:56:18.177Z,1010.71
2019-02-19T04:56:18.771Z,1010.72
2019-02-19T04:56:19.374Z,1010.71
2019-02-19T04:56:19.971Z,1010.72
2019-02-19T04:56:20.571Z,1010.71
2019-02-19T04:57:15.565Z,1010.72
2019-02-19T04:57:16.129Z,1010.70
2019-02-19T04:57:16.733Z,1010.71
2019-02-19T04:57:17.333Z,1010.72
2019-02-19T04:57:17.933Z,1010.73
2019-02-19T04:57:18.529Z,1010.71
2019-02-19T04:57:19.128Z,1010.70
2019-02-19T04:57:19.731Z,1010.68
2019-02-19T04:58:16.282Z,1010.72
2019-02-19T04:58:16.859Z,1010.66
2019-02-19T04:58:17.455Z,1010.68
2019-02-19T04:59:11.988Z,1010.66
2019-02-19T04:59:12.567Z,1010.68
2019-02-19T04:59:13.162Z,1010.68
2019-02-19T04:59:13.761Z,1010.69
2019-02-19T04:59:14.360Z,1010.67
2019-02-19T04:59:14.959Z,1010.65
2019-02-19T04:59:15.568Z,1010.66
2019-02-19T04:59:16.159Z,1010.67
2019-02-19T05:00:11.176Z,1010.65
2019-02-19T05:00:11.758Z,1010.68
2019-02-19T05:00:12.348Z,1010.69
2019-02-19T05:00:12.948Z,1010.66
2019-02-19T05:00:13.551Z,1010.67
2019-02-19T05:00:14.148Z,1010.68
2019-02-19T05:01:08.224Z,1010.62
2019-02-19T05:01:08.801Z,1010.61
2019-02-19T05:01:09.390Z,1010.62
2019-02-19T05:01:09.986Z,1010.65
2019-02-19T05:01:10.589Z,1010.65
2019-02-19T05:01:11.187Z,1010.65
2019-02-19T05:01:11.786Z,1010.65
2019-02-19T05:01:12.392Z,1010.65
2019-02-19T05:02:06.890Z,1010.62
2019-02-19T05:02:07.461Z,1010.65
2019-02-19T05:02:08.063Z,1010.63
2019-02-19T05:02:08.661Z,1010.63
2019-02-19T05:02:09.260Z,1010.65
2019-02-19T05:02:09.860Z,1010.64
2019-02-19T05:02:10.463Z,1010.68
2019-02-19T05:02:11.059Z,1010.63
2019-02-19T05:03:04.541Z,1010.66
2019-02-19T05:03:05.118Z,1010.68
2019-02-19T05:03:05.715Z,1010.67
2019-02-19T05:03:06.314Z,1010.68
2019-02-19T05:03:06.914Z,1010.67
2019-02-19T05:03:07.515Z,1010.67
2019-02-19T05:03:08.114Z,1010.63
2019-02-19T05:03:08.713Z,1010.66
2019-02-19T05:04:02.711Z,1010.66
2019-02-19T05:04:03.276Z,1010.63
2019-02-19T05:04:03.879Z,1010.65
2019-02-19T05:04:04.474Z,1010.68
2019-02-19T05:04:05.078Z,1010.67
2019-02-19T05:04:05.674Z,1010.67
2019-02-19T05:04:06.335Z,1010.64
2019-02-19T05:04:59.847Z,1010.61
2019-02-19T05:05:00.417Z,1010.61
2019-02-19T05:05:01.020Z,1010.65
2019-02-19T05:05:01.620Z,1010.61
2019-02-19T05:05:02.217Z,1010.66
2019-02-19T05:05:02.818Z,1010.64
2019-02-19T05:05:03.418Z,1010.65
2019-02-19T05:05:04.019Z,1010.62
2019-02-19T05:05:58.009Z,1010.63
2019-02-19T05:05:58.587Z,1010.63
2019-02-19T05:05:59.180Z,1010.62
2019-02-19T05:05:59.781Z,1010.64
2019-02-19T05:06:00.389Z,1010.61
2019-02-19T05:06:00.981Z,1010.62
2019-02-19T05:06:01.584Z,1010.64
2019-02-19T05:06:55.149Z,1010.61
2019-02-19T05:06:55.742Z,1010.61
2019-02-19T05:06:56.322Z,1010.61
2019-02-19T05:06:56.922Z,1010.58
2019-02-19T05:06:57.521Z,1010.63
2019-02-19T05:06:58.123Z,1010.59
2019-02-19T05:06:58.720Z,1010.59
2019-02-19T05:06:59.324Z,1010.63
2019-02-19T05:07:54.334Z,1010.55
2019-02-19T05:07:54.907Z,1010.55
2019-02-19T05:07:55.507Z,1010.54
2019-02-19T05:07:56.107Z,1010.59
2019-02-19T05:07:56.707Z,1010.57
2019-02-19T05:07:57.306Z,1010.59
2019-02-19T05:07:57.907Z,1010.58
2019-02-19T05:08:52.398Z,1010.53
2019-02-19T05:08:52.971Z,1010.50
2019-02-19T05:08:53.577Z,1010.53
2019-02-19T05:08:54.169Z,1010.53
2019-02-19T05:08:54.769Z,1010.55
2019-02-19T05:08:55.383Z,1010.55
2019-02-19T05:08:55.971Z,1010.53
2019-02-19T05:08:56.570Z,1010.58
2019-02-19T05:09:50.570Z,1010.54
2019-02-19T05:09:51.138Z,1010.58
2019-02-19T05:09:51.733Z,1010.55
2019-02-19T05:09:52.332Z,1010.55
2019-02-19T05:09:52.942Z,1010.53
2019-02-19T05:09:53.531Z,1010.57
2019-02-19T05:09:54.131Z,1010.61
2019-02-19T05:10:59.180Z,1010.60
2019-02-19T05:10:59.744Z,1010.60
2019-02-19T05:11:00.342Z,1010.60
2019-02-19T05:11:00.947Z,1010.63
2019-02-19T05:11:01.543Z,1010.63
2019-02-19T05:11:02.145Z,1010.60
2019-02-19T05:12:04.604Z,1010.61
2019-02-19T05:12:05.176Z,1010.60
2019-02-19T05:12:05.775Z,1010.61
2019-02-19T05:12:06.375Z,1010.65
2019-02-19T05:12:06.982Z,1010.63
2019-02-19T05:12:07.574Z,1010.63
2019-02-19T05:12:08.174Z,1010.61
2019-02-19T05:12:08.777Z,1010.63
2019-02-19T05:12:09.375Z,1010.62
2019-02-19T05:12:09.976Z,1010.57
2019-02-19T05:12:10.574Z,1010.63
2019-02-19T05:12:11.175Z,1010.62
2019-02-19T05:13:24.077Z,1010.63
2019-02-19T05:13:24.661Z,1010.66
2019-02-19T05:13:25.239Z,1010.60
2019-02-19T05:13:25.838Z,1010.67
2019-02-19T05:13:26.441Z,1010.63
2019-02-19T05:13:27.036Z,1010.65
2019-02-19T05:13:27.637Z,1010.67
2019-02-19T05:13:28.236Z,1010.63
2019-02-19T05:14:21.719Z,1010.58
2019-02-19T05:14:22.293Z,1010.58
2019-02-19T05:14:22.901Z,1010.60
2019-02-19T05:14:23.492Z,1010.58
2019-02-19T05:14:24.091Z,1010.59
2019-02-19T05:14:24.699Z,1010.61
2019-02-19T05:14:25.312Z,1010.60
2019-02-19T05:14:25.893Z,1010.63
2019-02-19T05:15:19.882Z,1010.57
2019-02-19T05:15:20.458Z,1010.59
2019-02-19T05:15:21.055Z,1010.58
2019-02-19T05:15:21.653Z,1010.57
2019-02-19T05:15:22.253Z,1010.56
2019-02-19T05:15:22.853Z,1010.55
2019-02-19T05:15:23.454Z,1010.59
2019-02-19T05:16:17.440Z,1010.53
2019-02-19T05:16:18.004Z,1010.54
2019-02-19T05:16:18.604Z,1010.51
2019-02-19T05:16:19.205Z,1010.52
2019-02-19T05:16:19.809Z,1010.52
2019-02-19T05:16:20.402Z,1010.51
2019-02-19T05:16:21.003Z,1010.53
2019-02-19T05:17:16.336Z,1010.50
2019-02-19T05:17:16.394Z,1010.50
2019-02-19T05:17:16.407Z,1010.50
2019-02-19T05:17:16.498Z,1010.53
2019-02-19T05:17:16.950Z,1010.52
2019-02-19T05:17:17.549Z,1010.52
2019-02-19T05:17:18.143Z,1010.54
2019-02-19T05:17:18.762Z,1010.51
2019-02-19T05:18:19.800Z,1010.54
2019-02-19T05:18:20.372Z,1010.55
2019-02-19T05:18:20.977Z,1010.59
2019-02-19T05:18:21.573Z,1010.55
2019-02-19T05:18:22.177Z,1010.59
2019-02-19T05:18:22.771Z,1010.58
2019-02-19T05:18:23.374Z,1010.59
2019-02-19T05:18:23.978Z,1010.54
2019-02-19T05:18:24.578Z,1010.58
2019-02-19T05:18:25.170Z,1010.56
2019-02-19T05:18:25.771Z,1010.57
2019-02-19T05:18:26.370Z,1010.60
2019-02-19T05:19:24.933Z,1010.57
2019-02-19T05:19:25.503Z,1010.55
2019-02-19T05:19:26.100Z,1010.50
2019-02-19T05:19:26.704Z,1010.53
2019-02-19T05:19:27.299Z,1010.51
2019-02-19T05:19:27.899Z,1010.52
2019-02-19T05:19:28.500Z,1010.53
2019-02-19T05:19:29.103Z,1010.54
2019-02-19T05:19:29.699Z,1010.54
2019-02-19T05:19:30.299Z,1010.54
2019-02-19T05:19:30.900Z,1010.49
2019-02-19T05:19:31.499Z,1010.51
2019-02-19T05:19:32.097Z,1010.52
2019-02-19T05:19:32.696Z,1010.57
2019-02-19T05:19:33.296Z,1010.52
2019-02-19T05:19:33.901Z,1010.55
2019-02-19T05:20:48.384Z,1010.53
2019-02-19T05:20:48.957Z,1010.52
2019-02-19T05:20:49.556Z,1010.48
2019-02-19T05:20:50.157Z,1010.52
2019-02-19T05:20:50.757Z,1010.54
2019-02-19T05:20:51.360Z,1010.52
2019-02-19T05:20:51.959Z,1010.52
2019-02-19T05:20:52.558Z,1010.49
2019-02-19T05:21:46.046Z,1010.49
2019-02-19T05:21:46.610Z,1010.48
2019-02-19T05:21:47.209Z,1010.43
2019-02-19T05:21:47.810Z,1010.46
2019-02-19T05:21:48.408Z,1010.47
2019-02-19T05:21:49.018Z,1010.44
2019-02-19T05:21:49.609Z,1010.48
2019-02-19T05:21:50.206Z,1010.47
2019-02-19T05:22:46.759Z,1010.47
2019-02-19T05:22:47.333Z,1010.44
2019-02-19T05:22:47.932Z,1010.46
2019-02-19T05:23:41.452Z,1010.51
2019-02-19T05:23:42.015Z,1010.49
2019-02-19T05:23:42.615Z,1010.48
2019-02-19T05:23:43.215Z,1010.48
2019-02-19T05:23:43.815Z,1010.50
2019-02-19T05:23:44.415Z,1010.48
2019-02-19T05:23:45.025Z,1010.54
2019-02-19T05:23:45.621Z,1010.52
2019-02-19T05:24:40.124Z,1010.52
2019-02-19T05:24:40.690Z,1010.48
2019-02-19T05:24:41.289Z,1010.52
2019-02-19T05:24:41.891Z,1010.53
2019-02-19T05:24:42.488Z,1010.55
2019-02-19T05:24:43.091Z,1010.53
2019-02-19T05:24:43.689Z,1010.56
2019-02-19T05:24:44.288Z,1010.51
2019-02-19T05:25:38.795Z,1010.58
2019-02-19T05:25:39.366Z,1010.54
2019-02-19T05:25:39.965Z,1010.54
2019-02-19T05:25:40.565Z,1010.59
2019-02-19T05:25:41.165Z,1010.51
2019-02-19T05:25:41.768Z,1010.54
2019-02-19T05:25:42.370Z,1010.56
2019-02-19T05:25:42.965Z,1010.57
2019-02-19T05:26:39.011Z,1010.62
2019-02-19T05:26:39.578Z,1010.61
2019-02-19T05:26:40.177Z,1010.62
2019-02-19T05:26:40.776Z,1010.61
2019-02-19T05:26:41.378Z,1010.62
2019-02-19T05:26:41.977Z,1010.61
2019-02-19T05:27:36.973Z,1010.63
2019-02-19T05:27:37.538Z,1010.64
2019-02-19T05:27:38.134Z,1010.63
2019-02-19T05:27:38.752Z,1010.64
2019-02-19T05:27:39.334Z,1010.64
2019-02-19T05:27:39.934Z,1010.65
2019-02-19T05:27:40.534Z,1010.64
2019-02-19T05:27:41.134Z,1010.66
2019-02-19T05:28:34.617Z,1010.67
2019-02-19T05:28:35.189Z,1010.68
2019-02-19T05:28:35.789Z,1010.70
2019-02-19T05:28:36.390Z,1010.67
2019-02-19T05:28:36.989Z,1010.68
2019-02-19T05:28:37.593Z,1010.67
2019-02-19T05:28:38.188Z,1010.70
2019-02-19T05:28:38.787Z,1010.70
2019-02-19T05:29:35.341Z,1010.72
2019-02-19T05:29:35.912Z,1010.71
2019-02-19T05:29:36.511Z,1010.69
2019-02-19T05:30:30.025Z,1010.71
2019-02-19T05:30:30.596Z,1010.73
2019-02-19T05:30:31.195Z,1010.75
2019-02-19T05:30:31.795Z,1010.72
2019-02-19T05:30:32.394Z,1010.73
2019-02-19T05:30:32.994Z,1010.72
2019-02-19T05:30:33.595Z,1010.73
2019-02-19T05:30:34.194Z,1010.75
2019-02-19T05:31:30.744Z,1010.71
2019-02-19T05:31:31.317Z,1010.71
2019-02-19T05:31:31.918Z,1010.72
2019-02-19T05:32:25.436Z,1010.71
2019-02-19T05:32:26.009Z,1010.72
2019-02-19T05:32:26.601Z,1010.72
2019-02-19T05:32:27.200Z,1010.72
2019-02-19T05:32:27.800Z,1010.73
2019-02-19T05:32:28.405Z,1010.70
2019-02-19T05:32:29.043Z,1010.67
2019-02-19T05:32:29.599Z,1010.67
2019-02-19T05:33:23.085Z,1010.64
2019-02-19T05:33:23.652Z,1010.69
2019-02-19T05:33:24.262Z,1010.67
2019-02-19T05:33:24.852Z,1010.67
2019-02-19T05:33:25.451Z,1010.65
2019-02-19T05:33:26.053Z,1010.68
2019-02-19T05:33:26.651Z,1010.71
2019-02-19T05:33:27.264Z,1010.69
2019-02-19T05:34:20.731Z,1010.67
2019-02-19T05:34:21.304Z,1010.70
2019-02-19T05:34:21.903Z,1010.67
2019-02-19T05:34:22.510Z,1010.68
2019-02-19T05:34:23.103Z,1010.67
2019-02-19T05:34:23.705Z,1010.70
2019-02-19T05:34:24.305Z,1010.68
2019-02-19T05:34:24.919Z,1010.70
2019-02-19T05:35:19.407Z,1010.67
2019-02-19T05:35:19.982Z,1010.70
2019-02-19T05:35:20.580Z,1010.67
2019-02-19T05:35:21.179Z,1010.64
2019-02-19T05:35:21.781Z,1010.67
2019-02-19T05:35:22.382Z,1010.72
2019-02-19T05:35:22.979Z,1010.69
2019-02-19T05:35:23.579Z,1010.73
2019-02-19T05:36:18.086Z,1010.73
2019-02-19T05:36:18.654Z,1010.76
2019-02-19T05:36:19.256Z,1010.70
2019-02-19T05:36:19.854Z,1010.72
2019-02-19T05:36:20.453Z,1010.73
2019-02-19T05:36:21.054Z,1010.74
2019-02-19T05:36:21.655Z,1010.78
2019-02-19T05:36:22.254Z,1010.75
2019-02-19T05:37:16.761Z,1010.76
2019-02-19T05:37:17.331Z,1010.77
2019-02-19T05:37:17.932Z,1010.73
2019-02-19T05:37:18.529Z,1010.72
2019-02-19T05:37:19.129Z,1010.78
2019-02-19T05:37:19.732Z,1010.75
2019-02-19T05:37:20.330Z,1010.77
2019-02-19T05:37:20.929Z,1010.77
2019-02-19T05:38:15.944Z,1010.78
2019-02-19T05:38:16.521Z,1010.78
2019-02-19T05:38:17.117Z,1010.78
2019-02-19T05:38:17.722Z,1010.77
2019-02-19T05:38:18.318Z,1010.80
2019-02-19T05:38:18.922Z,1010.75
2019-02-19T05:39:13.907Z,1010.74
2019-02-19T05:39:14.482Z,1010.73
2019-02-19T05:39:15.080Z,1010.73
2019-02-19T05:39:15.677Z,1010.80
2019-02-19T05:39:16.277Z,1010.77
2019-02-19T05:39:16.874Z,1010.79
2019-02-19T05:39:17.477Z,1010.79
2019-02-19T05:39:18.075Z,1010.78
2019-02-19T05:40:12.583Z,1010.73
2019-02-19T05:40:13.168Z,1010.71
2019-02-19T05:40:13.751Z,1010.68
2019-02-19T05:40:14.352Z,1010.74
2019-02-19T05:40:14.953Z,1010.72
2019-02-19T05:40:15.554Z,1010.73
2019-02-19T05:40:16.152Z,1010.70
2019-02-19T05:40:16.751Z,1010.73
2019-02-19T05:41:10.233Z,1010.75
2019-02-19T05:41:10.806Z,1010.77
2019-02-19T05:41:11.407Z,1010.76
2019-02-19T05:41:12.006Z,1010.80
2019-02-19T05:41:12.606Z,1010.81
2019-02-19T05:41:13.206Z,1010.77
2019-02-19T05:41:13.805Z,1010.81
2019-02-19T05:41:14.404Z,1010.80
2019-02-19T05:42:07.886Z,1010.77
2019-02-19T05:42:08.463Z,1010.82
2019-02-19T05:42:09.058Z,1010.81
2019-02-19T05:42:09.659Z,1010.79
2019-02-19T05:42:10.255Z,1010.81
2019-02-19T05:42:10.860Z,1010.81
2019-02-19T05:42:11.456Z,1010.79
2019-02-19T05:42:12.056Z,1010.80
2019-02-19T05:43:06.058Z,1010.78
2019-02-19T05:43:06.621Z,1010.80
2019-02-19T05:43:07.219Z,1010.81
2019-02-19T05:43:07.819Z,1010.79
2019-02-19T05:43:08.425Z,1010.80
2019-02-19T05:43:09.023Z,1010.80
2019-02-19T05:43:09.619Z,1010.82
2019-02-19T05:44:03.596Z,1010.83
2019-02-19T05:44:04.170Z,1010.85
2019-02-19T05:44:04.768Z,1010.82
2019-02-19T05:44:05.372Z,1010.83
2019-02-19T05:44:05.968Z,1010.84
2019-02-19T05:44:06.573Z,1010.84
2019-02-19T05:44:07.170Z,1010.84
2019-02-19T05:45:01.149Z,1010.80
2019-02-19T05:45:01.719Z,1010.83
2019-02-19T05:45:02.317Z,1010.87
2019-02-19T05:45:02.922Z,1010.88
2019-02-19T05:45:03.518Z,1010.85
2019-02-19T05:45:04.116Z,1010.89
2019-02-19T05:45:04.716Z,1010.87
2019-02-19T05:46:01.261Z,1010.78
2019-02-19T05:46:01.834Z,1010.84
2019-02-19T05:46:02.428Z,1010.81
2019-02-19T05:46:55.938Z,1010.83
2019-02-19T05:46:56.514Z,1010.87
2019-02-19T05:46:57.111Z,1010.85
2019-02-19T05:46:57.711Z,1010.87
2019-02-19T05:46:58.314Z,1010.85
2019-02-19T05:46:58.916Z,1010.86
2019-02-19T05:46:59.510Z,1010.88
2019-02-19T05:47:00.111Z,1010.88
2019-02-19T05:47:54.690Z,1010.84
2019-02-19T05:47:55.185Z,1010.87
2019-02-19T05:47:55.790Z,1010.84
2019-02-19T05:47:56.384Z,1010.86
2019-02-19T05:47:56.986Z,1010.88
2019-02-19T05:47:57.584Z,1010.87
2019-02-19T05:47:58.185Z,1010.92
2019-02-19T05:47:58.790Z,1010.92
2019-02-19T05:48:53.800Z,1010.85
2019-02-19T05:48:54.378Z,1010.86
2019-02-19T05:48:54.977Z,1010.91
2019-02-19T05:48:55.575Z,1010.88
2019-02-19T05:48:56.173Z,1010.88
2019-02-19T05:48:56.783Z,1010.86
2019-02-19T05:48:57.374Z,1010.86
2019-02-19T05:49:53.910Z,1010.90
2019-02-19T05:49:54.481Z,1010.87
2019-02-19T05:49:55.082Z,1010.90
2019-02-19T05:50:49.104Z,1010.91
2019-02-19T05:50:49.678Z,1010.93
2019-02-19T05:50:50.282Z,1010.89
2019-02-19T05:50:50.877Z,1010.89
2019-02-19T05:50:51.489Z,1010.93
2019-02-19T05:50:52.080Z,1010.95
2019-02-19T05:50:52.677Z,1010.93
2019-02-19T05:51:51.160Z,1010.93
2019-02-19T05:51:51.731Z,1010.93
2019-02-19T05:51:52.332Z,1010.92
2019-02-19T05:51:52.931Z,1010.89
2019-02-19T05:51:53.531Z,1010.92
2019-02-19T05:51:54.134Z,1010.94
2019-02-19T05:51:54.732Z,1010.94
2019-02-19T05:51:55.329Z,1010.97
2019-02-19T05:51:55.929Z,1010.97
2019-02-19T05:51:56.530Z,1010.96
2019-02-19T05:51:57.129Z,1010.97
2019-02-19T05:51:57.728Z,1010.96
2019-02-19T05:51:58.331Z,1010.97
2019-02-19T05:51:58.935Z,1010.97
2019-02-19T05:51:59.529Z,1010.94
2019-02-19T05:52:00.129Z,1010.98
2019-02-19T05:52:00.730Z,1010.98
2019-02-19T05:52:54.752Z,1010.88
2019-02-19T05:52:55.322Z,1010.89
2019-02-19T05:52:55.934Z,1010.90
2019-02-19T05:52:56.525Z,1010.92
2019-02-19T05:52:57.125Z,1010.92
2019-02-19T05:52:57.723Z,1010.92
2019-02-19T05:52:58.329Z,1010.91
2019-02-19T05:52:58.922Z,1010.93
2019-02-19T05:53:53.939Z,1010.94
2019-02-19T05:53:54.513Z,1010.95
2019-02-19T05:53:55.112Z,1010.94
2019-02-19T05:53:55.711Z,1010.94
2019-02-19T05:53:56.316Z,1010.95
2019-02-19T05:53:56.913Z,1010.94
2019-02-19T05:54:52.408Z,1010.96
2019-02-19T05:54:52.984Z,1010.94
2019-02-19T05:54:53.580Z,1010.98
2019-02-19T05:54:54.183Z,1010.95
2019-02-19T05:54:54.781Z,1010.95
2019-02-19T05:54:55.380Z,1010.99
2019-02-19T05:54:56.005Z,1010.97
2019-02-19T05:55:51.009Z,1010.93
2019-02-19T05:55:51.557Z,1010.94
2019-02-19T05:55:52.153Z,1010.97
2019-02-19T05:55:52.752Z,1010.98
2019-02-19T05:55:53.356Z,1010.95
2019-02-19T05:55:53.952Z,1011.01
2019-02-19T05:55:54.554Z,1011.00
2019-02-19T05:56:48.123Z,1010.98
2019-02-19T05:56:48.697Z,1011.01
2019-02-19T05:56:49.296Z,1010.97
2019-02-19T05:56:49.896Z,1010.99
2019-02-19T05:56:50.497Z,1010.98
2019-02-19T05:56:51.095Z,1010.98
2019-02-19T05:56:51.739Z,1011.00
2019-02-19T05:56:52.296Z,1011.01
2019-02-19T05:57:46.800Z,1010.97
2019-02-19T05:57:47.370Z,1011.02
2019-02-19T05:57:47.976Z,1011.03
2019-02-19T05:57:48.572Z,1011.03
2019-02-19T05:57:49.170Z,1011.04
2019-02-19T05:57:49.781Z,1011.04
2019-02-19T05:57:50.370Z,1011.05
2019-02-19T05:57:50.972Z,1011.01
2019-02-19T05:58:49.470Z,1011.00
2019-02-19T05:58:50.043Z,1011.01
2019-02-19T05:58:50.641Z,1011.04
2019-02-19T05:58:51.239Z,1011.05
2019-02-19T05:58:51.841Z,1011.05
2019-02-19T05:58:52.440Z,1011.04
2019-02-19T05:58:53.042Z,1011.02
2019-02-19T05:58:53.637Z,1011.06
2019-02-19T05:58:54.239Z,1011.03
2019-02-19T05:58:54.838Z,1011.04
2019-02-19T05:58:55.437Z,1011.05
2019-02-19T05:58:56.040Z,1011.06
2019-02-19T05:58:56.641Z,1011.06
2019-02-19T05:58:57.238Z,1011.08
2019-02-19T05:58:57.838Z,1011.08
2019-02-19T05:58:58.437Z,1011.02
2019-02-19T08:58:43.143Z,1012.87
2019-02-19T08:58:43.707Z,1012.84
2019-02-19T08:58:44.307Z,1012.87
2019-02-19T08:58:44.908Z,1012.87
2019-02-19T08:58:45.506Z,1012.88
2019-02-19T08:58:46.117Z,1012.85
2019-02-19T08:58:46.707Z,1012.86
2019-02-19T08:58:47.307Z,1012.87
2019-02-19T08:58:47.906Z,1012.88
2019-02-19T08:58:48.506Z,1012.84
2019-02-19T08:58:49.104Z,1012.85
2019-02-19T08:58:49.707Z,1012.86
2019-02-19T09:00:32.296Z,1012.85
2019-02-19T09:00:32.866Z,1012.84
2019-02-19T09:00:33.467Z,1012.86
2019-02-19T09:00:34.065Z,1012.89
2019-02-19T09:00:34.667Z,1012.86
2019-02-19T09:00:35.264Z,1012.88
2019-02-19T09:00:35.864Z,1012.86
2019-02-19T09:00:38.483Z,1012.90
2019-02-19T09:00:38.535Z,1012.86
2019-02-19T09:00:38.589Z,1012.89
2019-02-19T09:00:38.623Z,1012.88
2019-02-19T09:01:32.301Z,1012.89
2019-02-19T09:01:32.877Z,1012.91
2019-02-19T09:01:33.472Z,1012.88
2019-02-19T09:01:34.073Z,1012.89
2019-02-19T09:01:34.672Z,1012.92
2019-02-19T09:01:35.272Z,1012.91
2019-02-19T09:01:35.872Z,1012.89
2019-02-19T09:03:26.917Z,1012.92
2019-02-19T09:03:27.467Z,1012.93
2019-02-19T09:03:28.078Z,1012.90
2019-02-19T09:03:28.662Z,1012.94
2019-02-19T09:03:29.264Z,1012.95
2019-02-19T09:03:29.860Z,1012.92
2019-02-19T09:03:30.459Z,1012.92
2019-02-19T09:03:31.064Z,1012.90
2019-02-19T09:03:31.661Z,1012.96
2019-02-19T09:03:32.258Z,1012.93
2019-02-19T09:03:32.871Z,1012.96
2019-02-19T09:03:33.459Z,1012.95
2019-02-19T09:04:29.973Z,1012.95
2019-02-19T09:04:30.564Z,1012.97
2019-02-19T09:04:31.180Z,1012.96
2019-02-19T09:06:11.757Z,1012.96
2019-02-19T09:06:12.329Z,1012.94
2019-02-19T09:06:12.926Z,1012.92
2019-02-19T09:06:13.532Z,1012.97